sensor_id;sensor_type;location;lat;lon;timestamp;P1;durP1;ratioP1;P2;durP2;ratioP2
64293;SDS011;50636;45.596;5.258;2022-09-29T00:00:09;4.20;;;2.47;;
64293;SDS011;50636;45.596;5.258;2022-09-29T00:02:35;4.60;;;2.28;;
64293;SDS011;50636;45.596;5.258;2022-09-29T00:05:01;41.65;;;4.75;;
64293;SDS011;50636;45.596;5.258;2022-09-29T00:07:27;3.00;;;2.30;;
64293;SDS011;50636;45.596;5.258;2022-09-29T00:09:53;5.13;;;2.60;;
64293;SDS011;50636;45.596;5.258;2022-09-29T00:12:19;3.72;;;2.60;;
64293;SDS011;50636;45.596;5.258;2022-09-29T00:14:45;4.18;;;1.85;;
64293;SDS011;50636;45.596;5.258;2022-09-29T00:17:10;1.98;;;1.63;;
64293;SDS011;50636;45.596;5.258;2022-09-29T00:19:37;3.53;;;2.25;;
64293;SDS011;50636;45.596;5.258;2022-09-29T00:22:03;4.50;;;2.00;;
64293;SDS011;50636;45.596;5.258;2022-09-29T00:24:29;2.22;;;1.50;;
64293;SDS011;50636;45.596;5.258;2022-09-29T00:26:55;2.63;;;1.80;;
64293;SDS011;50636;45.596;5.258;2022-09-29T00:29:21;2.97;;;1.63;;
64293;SDS011;50636;45.596;5.258;2022-09-29T00:31:47;5.32;;;1.77;;
64293;SDS011;50636;45.596;5.258;2022-09-29T00:34:12;3.97;;;1.60;;
64293;SDS011;50636;45.596;5.258;2022-09-29T00:36:38;3.50;;;1.40;;
64293;SDS011;50636;45.596;5.258;2022-09-29T00:39:04;8.05;;;2.63;;
64293;SDS011;50636;45.596;5.258;2022-09-29T00:41:31;8.13;;;1.50;;
64293;SDS011;50636;45.596;5.258;2022-09-29T00:44:06;2.75;;;1.50;;
64293;SDS011;50636;45.596;5.258;2022-09-29T00:49:09;3.75;;;1.50;;
64293;SDS011;50636;45.596;5.258;2022-09-29T00:51:48;4.45;;;1.73;;
64293;SDS011;50636;45.596;5.258;2022-09-29T00:54:21;11.70;;;2.05;;
64293;SDS011;50636;45.596;5.258;2022-09-29T00:56:52;7.25;;;1.60;;
64293;SDS011;50636;45.596;5.258;2022-09-29T00:59:26;15.48;;;2.15;;
64293;SDS011;50636;45.596;5.258;2022-09-29T01:01:59;3.83;;;1.10;;
64293;SDS011;50636;45.596;5.258;2022-09-29T01:04:25;4.72;;;1.13;;
64293;SDS011;50636;45.596;5.258;2022-09-29T01:06:52;3.50;;;0.98;;
64293;SDS011;50636;45.596;5.258;2022-09-29T01:09:26;1.98;;;0.60;;
64293;SDS011;50636;45.596;5.258;2022-09-29T01:11:59;3.30;;;1.10;;
64293;SDS011;50636;45.596;5.258;2022-09-29T01:14:26;2.92;;;1.60;;
64293;SDS011;50636;45.596;5.258;2022-09-29T01:16:54;2.70;;;1.00;;
64293;SDS011;50636;45.596;5.258;2022-09-29T01:24:53;1.77;;;0.65;;
64293;SDS011;50636;45.596;5.258;2022-09-29T01:27:24;0.95;;;0.50;;
64293;SDS011;50636;45.596;5.258;2022-09-29T01:30:20;1.33;;;0.70;;
64293;SDS011;50636;45.596;5.258;2022-09-29T01:33:09;1.98;;;1.08;;
64293;SDS011;50636;45.596;5.258;2022-09-29T01:35:44;5.78;;;2.10;;
64293;SDS011;50636;45.596;5.258;2022-09-29T01:41:02;4.28;;;1.77;;
64293;SDS011;50636;45.596;5.258;2022-09-29T01:43:48;4.32;;;2.03;;
64293;SDS011;50636;45.596;5.258;2022-09-29T01:46:41;8.45;;;2.60;;
64293;SDS011;50636;45.596;5.258;2022-09-29T01:49:11;6.85;;;2.33;;
64293;SDS011;50636;45.596;5.258;2022-09-29T01:54:51;5.38;;;2.50;;
64293;SDS011;50636;45.596;5.258;2022-09-29T02:00:09;4.10;;;1.73;;
64293;SDS011;50636;45.596;5.258;2022-09-29T02:02:43;1.73;;;1.10;;
64293;SDS011;50636;45.596;5.258;2022-09-29T02:05:13;2.67;;;0.90;;
64293;SDS011;50636;45.596;5.258;2022-09-29T02:07:46;4.57;;;0.60;;
64293;SDS011;50636;45.596;5.258;2022-09-29T02:10:18;4.47;;;0.68;;
64293;SDS011;50636;45.596;5.258;2022-09-29T02:12:50;1.25;;;0.50;;
64293;SDS011;50636;45.596;5.258;2022-09-29T02:15:20;0.75;;;0.40;;
64293;SDS011;50636;45.596;5.258;2022-09-29T02:17:51;3.53;;;0.47;;
64293;SDS011;50636;45.596;5.258;2022-09-29T02:20:19;2.08;;;0.82;;
64293;SDS011;50636;45.596;5.258;2022-09-29T02:22:46;3.13;;;0.50;;
64293;SDS011;50636;45.596;5.258;2022-09-29T02:25:13;0.40;;;0.30;;
64293;SDS011;50636;45.596;5.258;2022-09-29T02:27:41;1.95;;;0.60;;
64293;SDS011;50636;45.596;5.258;2022-09-29T02:30:08;2.47;;;0.82;;
64293;SDS011;50636;45.596;5.258;2022-09-29T02:32:35;1.65;;;0.40;;
64293;SDS011;50636;45.596;5.258;2022-09-29T02:35:02;4.15;;;0.68;;
64293;SDS011;50636;45.596;5.258;2022-09-29T02:37:34;1.77;;;0.38;;
64293;SDS011;50636;45.596;5.258;2022-09-29T02:45:58;1.13;;;0.30;;
64293;SDS011;50636;45.596;5.258;2022-09-29T02:48:52;2.53;;;0.30;;
64293;SDS011;50636;45.596;5.258;2022-09-29T02:56:46;0.45;;;0.38;;
64293;SDS011;50636;45.596;5.258;2022-09-29T02:59:28;1.20;;;0.28;;
64293;SDS011;50636;45.596;5.258;2022-09-29T03:02:02;0.30;;;0.30;;
64293;SDS011;50636;45.596;5.258;2022-09-29T03:04:28;3.65;;;0.50;;
64293;SDS011;50636;45.596;5.258;2022-09-29T03:06:54;1.63;;;0.35;;
64293;SDS011;50636;45.596;5.258;2022-09-29T03:09:19;0.88;;;0.20;;
64293;SDS011;50636;45.596;5.258;2022-09-29T03:11:45;3.50;;;0.28;;
64293;SDS011;50636;45.596;5.258;2022-09-29T03:14:14;2.00;;;0.20;;
64293;SDS011;50636;45.596;5.258;2022-09-29T03:16:39;0.47;;;0.20;;
64293;SDS011;50636;45.596;5.258;2022-09-29T03:19:05;1.85;;;0.30;;
64293;SDS011;50636;45.596;5.258;2022-09-29T03:21:31;1.20;;;0.13;;
64293;SDS011;50636;45.596;5.258;2022-09-29T03:23:57;2.63;;;0.20;;
64293;SDS011;50636;45.596;5.258;2022-09-29T03:26:23;1.65;;;0.30;;
64293;SDS011;50636;45.596;5.258;2022-09-29T03:28:50;0.20;;;0.13;;
64293;SDS011;50636;45.596;5.258;2022-09-29T03:31:15;2.17;;;0.20;;
64293;SDS011;50636;45.596;5.258;2022-09-29T03:33:41;1.48;;;0.30;;
64293;SDS011;50636;45.596;5.258;2022-09-29T03:36:07;2.88;;;0.30;;
64293;SDS011;50636;45.596;5.258;2022-09-29T03:38:34;1.40;;;0.40;;
64293;SDS011;50636;45.596;5.258;2022-09-29T03:41:00;3.08;;;0.30;;
64293;SDS011;50636;45.596;5.258;2022-09-29T03:43:25;3.75;;;0.50;;
64293;SDS011;50636;45.596;5.258;2022-09-29T03:45:52;0.88;;;0.30;;
64293;SDS011;50636;45.596;5.258;2022-09-29T03:48:19;1.85;;;0.30;;
64293;SDS011;50636;45.596;5.258;2022-09-29T03:50:47;0.63;;;0.40;;
64293;SDS011;50636;45.596;5.258;2022-09-29T03:53:14;2.33;;;0.40;;
64293;SDS011;50636;45.596;5.258;2022-09-29T03:55:40;1.17;;;0.65;;
64293;SDS011;50636;45.596;5.258;2022-09-29T03:58:11;3.25;;;0.45;;
64293;SDS011;50636;45.596;5.258;2022-09-29T04:00:36;1.27;;;0.50;;
64293;SDS011;50636;45.596;5.258;2022-09-29T04:03:02;2.58;;;0.55;;
64293;SDS011;50636;45.596;5.258;2022-09-29T04:05:28;3.45;;;0.30;;
64293;SDS011;50636;45.596;5.258;2022-09-29T04:07:54;4.90;;;0.60;;
64293;SDS011;50636;45.596;5.258;2022-09-29T04:10:20;3.03;;;0.30;;
64293;SDS011;50636;45.596;5.258;2022-09-29T04:12:46;1.65;;;0.38;;
64293;SDS011;50636;45.596;5.258;2022-09-29T04:15:12;4.35;;;0.50;;
64293;SDS011;50636;45.596;5.258;2022-09-29T04:17:37;4.88;;;0.75;;
64293;SDS011;50636;45.596;5.258;2022-09-29T04:20:03;3.88;;;0.40;;
64293;SDS011;50636;45.596;5.258;2022-09-29T04:22:29;2.33;;;0.40;;
64293;SDS011;50636;45.596;5.258;2022-09-29T04:24:54;4.35;;;0.60;;
64293;SDS011;50636;45.596;5.258;2022-09-29T04:27:21;2.88;;;0.57;;
64293;SDS011;50636;45.596;5.258;2022-09-29T04:29:46;7.40;;;0.60;;
64293;SDS011;50636;45.596;5.258;2022-09-29T04:32:12;0.82;;;0.40;;
64293;SDS011;50636;45.596;5.258;2022-09-29T04:34:38;2.45;;;0.50;;
64293;SDS011;50636;45.596;5.258;2022-09-29T04:37:03;2.20;;;0.30;;
64293;SDS011;50636;45.596;5.258;2022-09-29T04:39:35;0.95;;;0.60;;
64293;SDS011;50636;45.596;5.258;2022-09-29T04:42:02;2.13;;;0.77;;
64293;SDS011;50636;45.596;5.258;2022-09-29T04:44:27;6.13;;;0.55;;
64293;SDS011;50636;45.596;5.258;2022-09-29T04:46:53;0.90;;;0.47;;
64293;SDS011;50636;45.596;5.258;2022-09-29T04:49:19;5.57;;;0.60;;
64293;SDS011;50636;45.596;5.258;2022-09-29T04:51:45;4.03;;;0.60;;
64293;SDS011;50636;45.596;5.258;2022-09-29T04:54:11;2.55;;;0.70;;
64293;SDS011;50636;45.596;5.258;2022-09-29T04:56:37;2.30;;;0.35;;
64293;SDS011;50636;45.596;5.258;2022-09-29T04:59:02;2.90;;;0.57;;
64293;SDS011;50636;45.596;5.258;2022-09-29T05:01:28;1.80;;;0.43;;
64293;SDS011;50636;45.596;5.258;2022-09-29T05:03:54;3.65;;;0.52;;
64293;SDS011;50636;45.596;5.258;2022-09-29T05:06:20;3.03;;;1.40;;
64293;SDS011;50636;45.596;5.258;2022-09-29T05:08:46;9.82;;;1.10;;
64293;SDS011;50636;45.596;5.258;2022-09-29T05:11:12;9.88;;;2.00;;
64293;SDS011;50636;45.596;5.258;2022-09-29T05:13:38;4.68;;;0.90;;
64293;SDS011;50636;45.596;5.258;2022-09-29T05:16:04;2.88;;;0.60;;
64293;SDS011;50636;45.596;5.258;2022-09-29T05:18:30;4.22;;;0.77;;
64293;SDS011;50636;45.596;5.258;2022-09-29T05:21:01;4.28;;;0.85;;
64293;SDS011;50636;45.596;5.258;2022-09-29T05:23:28;2.33;;;0.63;;
64293;SDS011;50636;45.596;5.258;2022-09-29T05:25:54;5.97;;;1.33;;
64293;SDS011;50636;45.596;5.258;2022-09-29T05:28:19;9.10;;;1.00;;
64293;SDS011;50636;45.596;5.258;2022-09-29T05:30:45;2.65;;;0.90;;
64293;SDS011;50636;45.596;5.258;2022-09-29T05:33:11;2.28;;;0.90;;
64293;SDS011;50636;45.596;5.258;2022-09-29T05:35:36;5.25;;;2.33;;
64293;SDS011;50636;45.596;5.258;2022-09-29T05:38:02;4.45;;;0.95;;
64293;SDS011;50636;45.596;5.258;2022-09-29T05:40:28;2.75;;;1.20;;
64293;SDS011;50636;45.596;5.258;2022-09-29T05:42:57;4.15;;;1.00;;
64293;SDS011;50636;45.596;5.258;2022-09-29T05:45:23;2.65;;;1.40;;
64293;SDS011;50636;45.596;5.258;2022-09-29T05:47:49;4.75;;;1.67;;
64293;SDS011;50636;45.596;5.258;2022-09-29T05:50:15;6.07;;;1.63;;
64293;SDS011;50636;45.596;5.258;2022-09-29T05:52:40;3.95;;;2.45;;
64293;SDS011;50636;45.596;5.258;2022-09-29T05:55:06;7.70;;;2.50;;
64293;SDS011;50636;45.596;5.258;2022-09-29T05:57:35;13.82;;;2.70;;
64293;SDS011;50636;45.596;5.258;2022-09-29T06:00:02;8.98;;;2.30;;
64293;SDS011;50636;45.596;5.258;2022-09-29T06:02:28;6.53;;;2.30;;
64293;SDS011;50636;45.596;5.258;2022-09-29T06:04:54;11.43;;;1.90;;
64293;SDS011;50636;45.596;5.258;2022-09-29T06:07:20;5.28;;;1.17;;
64293;SDS011;50636;45.596;5.258;2022-09-29T06:09:45;4.22;;;1.90;;
64293;SDS011;50636;45.596;5.258;2022-09-29T06:12:11;6.85;;;2.28;;
64293;SDS011;50636;45.596;5.258;2022-09-29T06:14:37;9.70;;;1.70;;
64293;SDS011;50636;45.596;5.258;2022-09-29T06:17:03;4.82;;;1.50;;
64293;SDS011;50636;45.596;5.258;2022-09-29T06:19:28;8.82;;;1.85;;
64293;SDS011;50636;45.596;5.258;2022-09-29T06:21:54;3.47;;;1.35;;
64293;SDS011;50636;45.596;5.258;2022-09-29T06:24:20;4.00;;;2.17;;
64293;SDS011;50636;45.596;5.258;2022-09-29T06:26:45;9.77;;;2.50;;
64293;SDS011;50636;45.596;5.258;2022-09-29T06:29:11;7.13;;;1.55;;
64293;SDS011;50636;45.596;5.258;2022-09-29T06:31:37;9.07;;;1.63;;
64293;SDS011;50636;45.596;5.258;2022-09-29T06:34:03;5.63;;;1.90;;
64293;SDS011;50636;45.596;5.258;2022-09-29T06:36:37;11.45;;;3.72;;
64293;SDS011;50636;45.596;5.258;2022-09-29T06:39:24;4.40;;;1.80;;
64293;SDS011;50636;45.596;5.258;2022-09-29T06:41:50;18.25;;;2.97;;
64293;SDS011;50636;45.596;5.258;2022-09-29T06:44:19;8.63;;;4.32;;
64293;SDS011;50636;45.596;5.258;2022-09-29T06:46:46;13.82;;;3.70;;
64293;SDS011;50636;45.596;5.258;2022-09-29T06:49:12;21.38;;;4.25;;
64293;SDS011;50636;45.596;5.258;2022-09-29T06:51:41;8.35;;;3.50;;
64293;SDS011;50636;45.596;5.258;2022-09-29T06:54:11;8.48;;;2.97;;
64293;SDS011;50636;45.596;5.258;2022-09-29T06:56:39;30.55;;;5.63;;
64293;SDS011;50636;45.596;5.258;2022-09-29T06:59:04;21.95;;;4.10;;
64293;SDS011;50636;45.596;5.258;2022-09-29T07:01:31;14.75;;;3.72;;
64293;SDS011;50636;45.596;5.258;2022-09-29T07:03:56;14.52;;;4.57;;
64293;SDS011;50636;45.596;5.258;2022-09-29T07:06:24;16.17;;;3.85;;
64293;SDS011;50636;45.596;5.258;2022-09-29T07:08:54;14.88;;;5.15;;
64293;SDS011;50636;45.596;5.258;2022-09-29T07:11:20;21.58;;;5.10;;
64293;SDS011;50636;45.596;5.258;2022-09-29T07:13:46;33.45;;;5.75;;
64293;SDS011;50636;45.596;5.258;2022-09-29T07:16:12;25.15;;;4.35;;
64293;SDS011;50636;45.596;5.258;2022-09-29T07:18:40;13.23;;;3.03;;
64293;SDS011;50636;45.596;5.258;2022-09-29T07:21:07;15.45;;;4.68;;
64293;SDS011;50636;45.596;5.258;2022-09-29T07:23:35;15.82;;;4.43;;
64293;SDS011;50636;45.596;5.258;2022-09-29T07:26:02;17.10;;;3.28;;
64293;SDS011;50636;45.596;5.258;2022-09-29T07:28:29;13.98;;;3.25;;
64293;SDS011;50636;45.596;5.258;2022-09-29T07:30:59;40.78;;;6.43;;
64293;SDS011;50636;45.596;5.258;2022-09-29T07:33:24;18.58;;;2.97;;
64293;SDS011;50636;45.596;5.258;2022-09-29T07:35:53;19.17;;;3.13;;
64293;SDS011;50636;45.596;5.258;2022-09-29T07:38:19;19.05;;;4.00;;
64293;SDS011;50636;45.596;5.258;2022-09-29T07:40:45;14.43;;;4.13;;
64293;SDS011;50636;45.596;5.258;2022-09-29T07:43:11;25.13;;;4.20;;
64293;SDS011;50636;45.596;5.258;2022-09-29T07:45:37;22.60;;;7.82;;
64293;SDS011;50636;45.596;5.258;2022-09-29T07:48:10;14.63;;;3.65;;
64293;SDS011;50636;45.596;5.258;2022-09-29T07:50:35;6.47;;;2.45;;
64293;SDS011;50636;45.596;5.258;2022-09-29T07:53:01;3.83;;;2.20;;
64293;SDS011;50636;45.596;5.258;2022-09-29T07:55:27;3.45;;;1.60;;
64293;SDS011;50636;45.596;5.258;2022-09-29T07:57:52;2.47;;;1.60;;
64293;SDS011;50636;45.596;5.258;2022-09-29T08:00:18;8.05;;;2.25;;
64293;SDS011;50636;45.596;5.258;2022-09-29T08:02:44;19.92;;;2.80;;
64293;SDS011;50636;45.596;5.258;2022-09-29T08:05:10;12.70;;;3.50;;
64293;SDS011;50636;45.596;5.258;2022-09-29T08:07:36;10.63;;;2.47;;
64293;SDS011;50636;45.596;5.258;2022-09-29T08:10:01;9.35;;;2.50;;
64293;SDS011;50636;45.596;5.258;2022-09-29T08:12:28;6.15;;;2.00;;
64293;SDS011;50636;45.596;5.258;2022-09-29T08:14:54;5.05;;;1.67;;
64293;SDS011;50636;45.596;5.258;2022-09-29T08:17:19;9.82;;;2.63;;
64293;SDS011;50636;45.596;5.258;2022-09-29T08:19:45;8.63;;;1.60;;
64293;SDS011;50636;45.596;5.258;2022-09-29T08:22:13;12.48;;;1.98;;
64293;SDS011;50636;45.596;5.258;2022-09-29T08:24:39;8.63;;;1.70;;
64293;SDS011;50636;45.596;5.258;2022-09-29T08:27:05;4.30;;;1.45;;
64293;SDS011;50636;45.596;5.258;2022-09-29T08:29:32;6.68;;;1.20;;
64293;SDS011;50636;45.596;5.258;2022-09-29T08:31:57;4.47;;;1.00;;
64293;SDS011;50636;45.596;5.258;2022-09-29T08:34:23;5.60;;;1.10;;
64293;SDS011;50636;45.596;5.258;2022-09-29T08:36:49;2.83;;;0.77;;
64293;SDS011;50636;45.596;5.258;2022-09-29T08:39:16;3.38;;;1.38;;
64293;SDS011;50636;45.596;5.258;2022-09-29T08:41:52;4.60;;;1.40;;
64293;SDS011;50636;45.596;5.258;2022-09-29T08:44:43;10.05;;;2.70;;
64293;SDS011;50636;45.596;5.258;2022-09-29T08:47:28;7.72;;;1.60;;
64293;SDS011;50636;45.596;5.258;2022-09-29T08:50:10;9.50;;;2.17;;
64293;SDS011;50636;45.596;5.258;2022-09-29T08:52:41;5.25;;;1.63;;
64293;SDS011;50636;45.596;5.258;2022-09-29T08:57:40;30.80;;;2.85;;
64293;SDS011;50636;45.596;5.258;2022-09-29T09:00:09;14.75;;;2.72;;
64293;SDS011;50636;45.596;5.258;2022-09-29T09:05:18;7.32;;;2.38;;
64293;SDS011;50636;45.596;5.258;2022-09-29T09:22:13;18.25;;;1.80;;
64293;SDS011;50636;45.596;5.258;2022-09-29T09:24:46;15.77;;;2.55;;
64293;SDS011;50636;45.596;5.258;2022-09-29T09:27:21;7.47;;;2.00;;
64293;SDS011;50636;45.596;5.258;2022-09-29T09:30:04;9.15;;;2.60;;
64293;SDS011;50636;45.596;5.258;2022-09-29T09:32:54;15.13;;;3.15;;
64293;SDS011;50636;45.596;5.258;2022-09-29T09:35:35;14.82;;;3.15;;
64293;SDS011;50636;45.596;5.258;2022-09-29T09:38:27;8.98;;;1.77;;
64293;SDS011;50636;45.596;5.258;2022-09-29T09:41:19;5.70;;;1.63;;
64293;SDS011;50636;45.596;5.258;2022-09-29T09:43:50;4.05;;;1.25;;
64293;SDS011;50636;45.596;5.258;2022-09-29T09:54:12;14.20;;;2.53;;
64293;SDS011;50636;45.596;5.258;2022-09-29T09:59:29;5.20;;;1.02;;
64293;SDS011;50636;45.596;5.258;2022-09-29T10:01:58;3.53;;;1.00;;
64293;SDS011;50636;45.596;5.258;2022-09-29T10:04:24;2.33;;;0.60;;
64293;SDS011;50636;45.596;5.258;2022-09-29T10:06:53;2.58;;;0.80;;
64293;SDS011;50636;45.596;5.258;2022-09-29T10:09:21;3.72;;;0.80;;
64293;SDS011;50636;45.596;5.258;2022-09-29T10:11:48;3.10;;;1.65;;
64293;SDS011;50636;45.596;5.258;2022-09-29T10:14:23;8.38;;;4.93;;
64293;SDS011;50636;45.596;5.258;2022-09-29T10:17:00;13.65;;;4.38;;
64293;SDS011;50636;45.596;5.258;2022-09-29T10:19:54;17.70;;;4.70;;
64293;SDS011;50636;45.596;5.258;2022-09-29T10:22:30;29.20;;;15.43;;
64293;SDS011;50636;45.596;5.258;2022-09-29T10:27:52;18.40;;;10.15;;
64293;SDS011;50636;45.596;5.258;2022-09-29T10:30:32;13.95;;;3.88;;
64293;SDS011;50636;45.596;5.258;2022-09-29T10:33:02;5.68;;;1.85;;
64293;SDS011;50636;45.596;5.258;2022-09-29T10:35:37;7.85;;;1.83;;
64293;SDS011;50636;45.596;5.258;2022-09-29T10:38:26;4.15;;;1.70;;
64293;SDS011;50636;45.596;5.258;2022-09-29T10:40:52;10.48;;;1.92;;
64293;SDS011;50636;45.596;5.258;2022-09-29T10:43:27;12.60;;;2.10;;
64293;SDS011;50636;45.596;5.258;2022-09-29T10:46:48;15.43;;;2.10;;
64293;SDS011;50636;45.596;5.258;2022-09-29T10:49:09;4.60;;;1.42;;
64293;SDS011;50636;45.596;5.258;2022-09-29T10:51:40;8.40;;;1.88;;
64293;SDS011;50636;45.596;5.258;2022-09-29T10:54:16;6.05;;;1.67;;
64293;SDS011;50636;45.596;5.258;2022-09-29T10:56:55;4.72;;;1.20;;
64293;SDS011;50636;45.596;5.258;2022-09-29T10:59:22;5.40;;;1.15;;
64293;SDS011;50636;45.596;5.258;2022-09-29T11:01:50;5.03;;;1.40;;
64293;SDS011;50636;45.596;5.258;2022-09-29T11:04:22;6.00;;;1.17;;
64293;SDS011;50636;45.596;5.258;2022-09-29T11:06:51;3.15;;;1.10;;
64293;SDS011;50636;45.596;5.258;2022-09-29T11:14:25;6.65;;;1.67;;
64293;SDS011;50636;45.596;5.258;2022-09-29T11:16:56;5.90;;;1.70;;
64293;SDS011;50636;45.596;5.258;2022-09-29T11:19:24;19.02;;;2.47;;
64293;SDS011;50636;45.596;5.258;2022-09-29T11:30:19;7.03;;;1.25;;
64293;SDS011;50636;45.596;5.258;2022-09-29T11:38:12;6.97;;;1.65;;
64293;SDS011;50636;45.596;5.258;2022-09-29T11:43:38;14.52;;;1.75;;
64293;SDS011;50636;45.596;5.258;2022-09-29T11:46:33;16.23;;;2.67;;
64293;SDS011;50636;45.596;5.258;2022-09-29T11:52:31;8.45;;;1.70;;
64293;SDS011;50636;45.596;5.258;2022-09-29T12:00:47;7.57;;;1.58;;
64293;SDS011;50636;45.596;5.258;2022-09-29T12:03:33;5.57;;;1.95;;
64293;SDS011;50636;45.596;5.258;2022-09-29T12:11:32;8.75;;;2.03;;
64293;SDS011;50636;45.596;5.258;2022-09-29T12:14:23;6.80;;;1.20;;
64293;SDS011;50636;45.596;5.258;2022-09-29T12:16:58;5.88;;;1.13;;
64293;SDS011;50636;45.596;5.258;2022-09-29T12:19:30;13.40;;;3.60;;
64293;SDS011;50636;45.596;5.258;2022-09-29T12:21:58;16.23;;;2.60;;
64293;SDS011;50636;45.596;5.258;2022-09-29T12:24:34;17.80;;;2.50;;
64293;SDS011;50636;45.596;5.258;2022-09-29T12:32:51;3.65;;;0.90;;
64293;SDS011;50636;45.596;5.258;2022-09-29T12:38:18;4.13;;;1.10;;
64293;SDS011;50636;45.596;5.258;2022-09-29T12:46:26;6.03;;;1.20;;
64293;SDS011;50636;45.596;5.258;2022-09-29T12:49:10;6.28;;;1.33;;
64293;SDS011;50636;45.596;5.258;2022-09-29T12:51:58;16.63;;;6.85;;
64293;SDS011;50636;45.596;5.258;2022-09-29T12:54:41;4.47;;;1.00;;
64293;SDS011;50636;45.596;5.258;2022-09-29T13:02:59;4.70;;;0.93;;
64293;SDS011;50636;45.596;5.258;2022-09-29T13:05:52;6.35;;;0.90;;
64293;SDS011;50636;45.596;5.258;2022-09-29T13:08:44;4.25;;;1.20;;
64293;SDS011;50636;45.596;5.258;2022-09-29T13:16:58;8.57;;;1.50;;
64293;SDS011;50636;45.596;5.258;2022-09-29T13:20:10;5.40;;;1.00;;
64293;SDS011;50636;45.596;5.258;2022-09-29T13:28:42;7.40;;;2.10;;
64293;SDS011;50636;45.596;5.258;2022-09-29T13:31:14;7.22;;;1.27;;
64293;SDS011;50636;45.596;5.258;2022-09-29T13:33:53;13.45;;;1.77;;
64293;SDS011;50636;45.596;5.258;2022-09-29T13:36:26;10.27;;;1.50;;
64293;SDS011;50636;45.596;5.258;2022-09-29T13:39:02;2.75;;;0.90;;
64293;SDS011;50636;45.596;5.258;2022-09-29T13:41:35;3.72;;;0.88;;
64293;SDS011;50636;45.596;5.258;2022-09-29T13:46:42;5.25;;;0.80;;
64293;SDS011;50636;45.596;5.258;2022-09-29T13:51:51;6.57;;;1.70;;
64293;SDS011;50636;45.596;5.258;2022-09-29T13:54:27;7.10;;;1.60;;
64293;SDS011;50636;45.596;5.258;2022-09-29T14:02:36;2.70;;;0.80;;
64293;SDS011;50636;45.596;5.258;2022-09-29T14:05:34;2.85;;;0.82;;
64293;SDS011;50636;45.596;5.258;2022-09-29T14:10:27;6.15;;;1.08;;
64293;SDS011;50636;45.596;5.258;2022-09-29T14:15:32;8.88;;;1.40;;
64293;SDS011;50636;45.596;5.258;2022-09-29T14:18:03;3.22;;;0.93;;
64293;SDS011;50636;45.596;5.258;2022-09-29T14:20:38;3.20;;;1.10;;
64293;SDS011;50636;45.596;5.258;2022-09-29T14:29:09;5.28;;;0.95;;
64293;SDS011;50636;45.596;5.258;2022-09-29T14:31:42;7.60;;;1.50;;
64293;SDS011;50636;45.596;5.258;2022-09-29T14:34:10;5.57;;;1.00;;
64293;SDS011;50636;45.596;5.258;2022-09-29T14:36:40;2.28;;;0.57;;
64293;SDS011;50636;45.596;5.258;2022-09-29T14:39:09;3.28;;;0.73;;
64293;SDS011;50636;45.596;5.258;2022-09-29T14:41:43;7.55;;;1.65;;
64293;SDS011;50636;45.596;5.258;2022-09-29T14:50:24;5.03;;;1.13;;
64293;SDS011;50636;45.596;5.258;2022-09-29T14:53:40;10.98;;;1.95;;
64293;SDS011;50636;45.596;5.258;2022-09-29T15:04:47;4.38;;;0.90;;
64293;SDS011;50636;45.596;5.258;2022-09-29T15:07:15;6.85;;;4.20;;
64293;SDS011;50636;45.596;5.258;2022-09-29T15:09:47;9.23;;;2.78;;
64293;SDS011;50636;45.596;5.258;2022-09-29T15:14:52;2.55;;;0.90;;
64293;SDS011;50636;45.596;5.258;2022-09-29T15:25:54;11.55;;;1.85;;
64293;SDS011;50636;45.596;5.258;2022-09-29T15:28:33;7.93;;;1.40;;
64293;SDS011;50636;45.596;5.258;2022-09-29T15:31:07;10.23;;;1.40;;
64293;SDS011;50636;45.596;5.258;2022-09-29T15:33:39;6.13;;;0.75;;
64293;SDS011;50636;45.596;5.258;2022-09-29T15:38:39;11.90;;;1.58;;
64293;SDS011;50636;45.596;5.258;2022-09-29T15:43:42;8.50;;;1.33;;
64293;SDS011;50636;45.596;5.258;2022-09-29T15:46:21;2.70;;;0.77;;
64293;SDS011;50636;45.596;5.258;2022-09-29T15:49:06;3.33;;;0.95;;
64293;SDS011;50636;45.596;5.258;2022-09-29T15:51:41;3.47;;;0.80;;
64293;SDS011;50636;45.596;5.258;2022-09-29T15:54:12;6.82;;;1.27;;
64293;SDS011;50636;45.596;5.258;2022-09-29T15:56:38;15.55;;;2.20;;
64293;SDS011;50636;45.596;5.258;2022-09-29T15:59:42;13.20;;;2.22;;
64293;SDS011;50636;45.596;5.258;2022-09-29T16:02:21;5.05;;;0.90;;
64293;SDS011;50636;45.596;5.258;2022-09-29T16:04:59;1.85;;;0.70;;
64293;SDS011;50636;45.596;5.258;2022-09-29T16:07:29;8.95;;;1.60;;
64293;SDS011;50636;45.596;5.258;2022-09-29T16:10:05;4.07;;;1.10;;
64293;SDS011;50636;45.596;5.258;2022-09-29T16:13:02;7.28;;;1.10;;
64293;SDS011;50636;45.596;5.258;2022-09-29T16:15:36;2.70;;;0.88;;
64293;SDS011;50636;45.596;5.258;2022-09-29T16:18:09;10.50;;;2.03;;
64293;SDS011;50636;45.596;5.258;2022-09-29T16:20:52;5.47;;;1.00;;
64293;SDS011;50636;45.596;5.258;2022-09-29T16:23:27;8.75;;;1.20;;
64293;SDS011;50636;45.596;5.258;2022-09-29T16:28:31;4.88;;;0.63;;
64293;SDS011;50636;45.596;5.258;2022-09-29T16:31:03;9.70;;;1.58;;
64293;SDS011;50636;45.596;5.258;2022-09-29T16:33:32;5.93;;;1.00;;
64293;SDS011;50636;45.596;5.258;2022-09-29T16:36:00;5.40;;;1.10;;
64293;SDS011;50636;45.596;5.258;2022-09-29T16:38:31;11.98;;;1.83;;
64293;SDS011;50636;45.596;5.258;2022-09-29T16:46:45;4.60;;;1.42;;
64293;SDS011;50636;45.596;5.258;2022-09-29T16:49:22;18.05;;;2.28;;
64293;SDS011;50636;45.596;5.258;2022-09-29T16:51:58;10.05;;;2.00;;
64293;SDS011;50636;45.596;5.258;2022-09-29T16:54:31;5.10;;;1.63;;
64293;SDS011;50636;45.596;5.258;2022-09-29T16:57:21;4.95;;;0.70;;
64293;SDS011;50636;45.596;5.258;2022-09-29T16:59:57;1.45;;;0.82;;
64293;SDS011;50636;45.596;5.258;2022-09-29T17:02:25;4.93;;;1.23;;
64293;SDS011;50636;45.596;5.258;2022-09-29T17:04:55;3.08;;;1.40;;
64293;SDS011;50636;45.596;5.258;2022-09-29T17:07:24;4.38;;;1.20;;
64293;SDS011;50636;45.596;5.258;2022-09-29T17:09:52;15.38;;;2.13;;
64293;SDS011;50636;45.596;5.258;2022-09-29T17:12:21;7.53;;;1.70;;
64293;SDS011;50636;45.596;5.258;2022-09-29T17:14:47;8.18;;;2.88;;
64293;SDS011;50636;45.596;5.258;2022-09-29T17:17:16;10.55;;;1.60;;
64293;SDS011;50636;45.596;5.258;2022-09-29T17:19:44;5.28;;;1.63;;
64293;SDS011;50636;45.596;5.258;2022-09-29T17:22:31;11.82;;;2.38;;
64293;SDS011;50636;45.596;5.258;2022-09-29T17:24:59;12.20;;;1.77;;
64293;SDS011;50636;45.596;5.258;2022-09-29T17:27:25;4.78;;;1.70;;
64293;SDS011;50636;45.596;5.258;2022-09-29T17:30:11;4.60;;;1.50;;
64293;SDS011;50636;45.596;5.258;2022-09-29T17:32:42;5.85;;;1.58;;
64293;SDS011;50636;45.596;5.258;2022-09-29T17:35:11;12.27;;;2.10;;
64293;SDS011;50636;45.596;5.258;2022-09-29T17:37:38;6.53;;;2.30;;
64293;SDS011;50636;45.596;5.258;2022-09-29T17:40:24;12.05;;;4.40;;
64293;SDS011;50636;45.596;5.258;2022-09-29T17:42:57;6.68;;;1.85;;
64293;SDS011;50636;45.596;5.258;2022-09-29T17:45:25;6.22;;;1.65;;
64293;SDS011;50636;45.596;5.258;2022-09-29T17:47:52;4.32;;;2.17;;
64293;SDS011;50636;45.596;5.258;2022-09-29T17:52:54;7.47;;;2.00;;
64293;SDS011;50636;45.596;5.258;2022-09-29T17:55:20;6.75;;;3.55;;
64293;SDS011;50636;45.596;5.258;2022-09-29T17:57:47;7.72;;;2.78;;
64293;SDS011;50636;45.596;5.258;2022-09-29T18:00:24;11.35;;;3.22;;
64293;SDS011;50636;45.596;5.258;2022-09-29T18:02:52;9.52;;;3.28;;
64293;SDS011;50636;45.596;5.258;2022-09-29T18:05:25;4.25;;;3.08;;
64293;SDS011;50636;45.596;5.258;2022-09-29T18:07:53;10.00;;;3.75;;
64293;SDS011;50636;45.596;5.258;2022-09-29T18:13:06;7.60;;;3.28;;
64293;SDS011;50636;45.596;5.258;2022-09-29T18:15:33;11.88;;;4.18;;
64293;SDS011;50636;45.596;5.258;2022-09-29T18:18:00;9.55;;;3.53;;
64293;SDS011;50636;45.596;5.258;2022-09-29T18:20:30;7.50;;;3.38;;
64293;SDS011;50636;45.596;5.258;2022-09-29T18:22:57;9.43;;;3.78;;